createdAt,value
2018-07-30T00:04:17.818Z,97387.05
2018-07-30T00:06:55.163Z,97382.50
2018-07-30T00:09:32.466Z,97389.50
2018-07-30T00:12:06.517Z,97385.13
2018-07-30T00:17:32.942Z,97386.45
2018-07-30T00:20:11.320Z,97386.41
2018-07-30T00:22:53.370Z,97383.77
2018-07-30T00:25:33.710Z,97378.09
2018-07-30T00:28:19.910Z,97375.13
2018-07-30T00:30:59.758Z,97370.70
2018-07-30T00:39:15.037Z,97377.06
2018-07-30T00:41:45.094Z,97371.09
2018-07-30T00:44:15.065Z,97368.00
2018-07-30T00:46:44.928Z,97372.41
2018-07-30T00:49:14.840Z,97369.14
2018-07-30T00:51:44.720Z,97367.20
2018-07-30T00:54:14.452Z,97367.42
2018-07-30T00:56:44.555Z,97363.10
2018-07-30T00:59:14.369Z,97359.01
2018-07-30T01:01:44.230Z,97361.79
2018-07-30T01:04:14.304Z,97364.88
2018-07-30T01:06:44.169Z,97369.78
2018-07-30T01:09:14.308Z,97371.02
2018-07-30T01:11:44.547Z,97364.95
2018-07-30T01:14:15.761Z,97367.42
2018-07-30T01:16:46.488Z,97357.01
2018-07-30T01:19:16.547Z,97361.02
2018-07-30T01:21:46.639Z,97360.92
2018-07-30T01:24:16.552Z,97366.80
2018-07-30T01:26:46.681Z,97364.06
2018-07-30T01:29:16.682Z,97354.84
2018-07-30T01:34:24.821Z,97356.87
2018-07-30T01:36:56.781Z,97359.25
2018-07-30T01:39:28.935Z,97361.43
2018-07-30T01:41:59.832Z,97356.95
2018-07-30T01:44:31.091Z,97355.77
2018-07-30T01:47:02.940Z,97352.48
2018-07-30T01:49:35.899Z,97354.72
2018-07-30T01:52:06.638Z,97349.42
2018-07-30T01:54:37.999Z,97354.19
2018-07-30T01:57:10.455Z,97349.36
2018-07-30T01:59:41.521Z,97363.64
2018-07-30T02:02:14.940Z,97358.81
2018-07-30T02:04:47.053Z,97364.69
2018-07-30T02:07:19.285Z,97358.70
2018-07-30T02:09:50.102Z,97366.73
2018-07-30T02:12:22.826Z,97361.88
2018-07-30T02:14:52.902Z,97362.92
2018-07-30T02:17:28.758Z,97357.26
2018-07-30T02:20:01.026Z,97358.89
2018-07-30T02:22:31.381Z,97359.41
2018-07-30T02:25:01.929Z,97363.46
2018-07-30T02:27:33.859Z,97354.16
2018-07-30T02:30:06.759Z,97354.73
2018-07-30T02:32:40.193Z,97356.00
2018-07-30T02:35:12.034Z,97354.97
2018-07-30T02:37:46.117Z,97357.16
2018-07-30T02:40:17.272Z,97354.24
2018-07-30T02:42:48.118Z,97353.46
2018-07-30T02:45:19.352Z,97363.66
2018-07-30T02:47:50.294Z,97362.09
2018-07-30T02:53:00.458Z,97365.30
2018-07-30T02:55:30.445Z,97364.75
2018-07-30T02:58:05.811Z,97361.78
2018-07-30T03:00:37.532Z,97367.18
2018-07-30T03:03:11.633Z,97367.45
2018-07-30T03:05:44.032Z,97367.99
2018-07-30T03:08:15.864Z,97361.02
2018-07-30T03:10:47.544Z,97366.92
2018-07-30T03:13:19.086Z,97368.53
2018-07-30T03:15:49.888Z,97368.80
2018-07-30T03:18:21.722Z,97366.66
2018-07-30T03:20:53.416Z,97373.09
2018-07-30T03:26:10.588Z,97378.45
2018-07-30T03:28:46.167Z,97375.48
2018-07-30T03:31:32.591Z,97378.17
2018-07-30T03:34:14.425Z,97373.34
2018-07-30T03:36:53.537Z,97377.89
2018-07-30T03:39:29.058Z,97386.73
2018-07-30T03:42:10.818Z,97384.84
2018-07-30T03:44:49.163Z,97385.67
2018-07-30T03:47:28.763Z,97381.40
2018-07-30T03:52:49.792Z,97385.13
2018-07-30T03:55:27.504Z,97387.05
2018-07-30T04:00:46.013Z,97392.69
2018-07-30T04:03:31.286Z,97393.22
2018-07-30T04:06:06.540Z,97392.62
2018-07-30T04:08:41.043Z,97389.16
2018-07-30T04:11:15.619Z,97396.65
2018-07-30T04:13:54.570Z,97398.48
2018-07-30T04:16:37.456Z,97400.46
2018-07-30T04:19:10.410Z,97394.84
2018-07-30T04:21:49.964Z,97404.95
2018-07-30T04:24:24.338Z,97397.73
2018-07-30T04:27:05.318Z,97399.13
2018-07-30T04:29:51.820Z,97401.02
2018-07-30T04:32:27.193Z,97401.13
2018-07-30T04:35:02.287Z,97403.41
2018-07-30T04:37:42.147Z,97401.98
2018-07-30T04:40:29.605Z,97394.08
2018-07-30T04:43:11.018Z,97399.78
2018-07-30T04:45:45.331Z,97399.14
2018-07-30T04:48:29.415Z,97401.63
2018-07-30T04:51:05.313Z,97397.59
2018-07-30T04:53:46.635Z,97391.37
2018-07-30T04:56:27.116Z,97396.63
2018-07-30T04:59:12.085Z,97396.63
2018-07-30T05:01:51.262Z,97399.87
2018-07-30T05:04:29.620Z,97404.58
2018-07-30T05:07:06.001Z,97405.88
2018-07-30T05:09:48.603Z,97404.11
2018-07-30T05:12:34.275Z,97399.25
2018-07-30T05:17:55.966Z,97400.96
2018-07-30T05:23:14.706Z,97403.39
2018-07-30T05:25:50.423Z,97398.27
2018-07-30T05:28:25.633Z,97403.03
2018-07-30T05:31:01.199Z,97399.78
2018-07-30T05:33:38.015Z,97408.02
2018-07-30T05:36:19.735Z,97411.32
2018-07-30T05:38:59.449Z,97410.66
2018-07-30T05:41:35.527Z,97418.64
2018-07-30T05:44:13.589Z,97410.17
2018-07-30T05:46:53.113Z,97411.09
2018-07-30T05:49:35.765Z,97413.22
2018-07-30T05:52:14.829Z,97414.05
2018-07-30T05:54:54.258Z,97412.05
2018-07-30T05:57:31.987Z,97411.77
2018-07-30T06:00:16.688Z,97408.03
2018-07-30T06:02:53.613Z,97413.55
2018-07-30T06:05:33.075Z,97409.85
2018-07-30T06:08:18.468Z,97417.08
2018-07-30T06:10:56.526Z,97412.48
2018-07-30T06:13:34.931Z,97415.63
2018-07-30T06:16:21.894Z,97421.22
2018-07-30T06:18:58.879Z,97423.19
2018-07-30T06:21:35.061Z,97420.66
2018-07-30T06:24:09.775Z,97409.16
2018-07-30T06:26:45.652Z,97424.93
2018-07-30T06:29:25.877Z,97423.17
2018-07-30T06:32:07.390Z,97425.27
2018-07-30T06:34:45.805Z,97432.02
2018-07-30T06:40:09.490Z,97422.05
2018-07-30T06:42:43.721Z,97430.93
2018-07-30T06:45:23.309Z,97434.22
2018-07-30T06:47:59.844Z,97437.02
2018-07-30T06:50:36.402Z,97435.22
2018-07-30T06:53:21.669Z,97439.02
2018-07-30T06:55:58.853Z,97430.31
2018-07-30T06:58:35.463Z,97435.23
2018-07-30T07:03:57.076Z,97442.88
2018-07-30T07:06:34.563Z,97438.20
2018-07-30T07:09:18.611Z,97439.13
2018-07-30T07:12:03.864Z,97441.05
2018-07-30T07:14:41.001Z,97444.47
2018-07-30T07:17:25.240Z,97438.50
2018-07-30T07:20:04.057Z,97441.80
2018-07-30T07:22:38.092Z,97431.99
2018-07-30T07:25:16.457Z,97431.87
2018-07-30T07:27:55.529Z,97441.96
2018-07-30T07:30:34.684Z,97441.69
2018-07-30T07:33:17.225Z,97441.28
2018-07-30T07:35:57.699Z,97439.97
2018-07-30T07:38:44.437Z,97437.45
2018-07-30T07:41:28.930Z,97444.88
2018-07-30T07:44:07.145Z,97442.64
2018-07-30T07:46:46.608Z,97446.88
2018-07-30T07:49:22.996Z,97451.06
2018-07-30T07:52:08.189Z,97448.09
2018-07-30T07:54:48.437Z,97449.49
2018-07-30T08:00:13.042Z,97448.56
2018-07-30T08:02:51.432Z,97445.39
2018-07-30T08:05:29.427Z,97442.02
2018-07-30T08:08:08.573Z,97444.69
2018-07-30T08:10:45.724Z,97444.41
2018-07-30T08:13:22.360Z,97450.72
2018-07-30T08:16:03.347Z,97451.72
2018-07-30T08:18:42.867Z,97454.05
2018-07-30T08:21:26.797Z,97452.73
2018-07-30T08:24:06.553Z,97458.55
2018-07-30T08:26:46.428Z,97450.97
2018-07-30T08:29:24.026Z,97442.36
2018-07-30T08:32:06.221Z,97446.45
2018-07-30T08:34:47.597Z,97446.31
2018-07-30T08:37:25.388Z,97443.48
2018-07-30T08:40:03.516Z,97440.02
2018-07-30T08:42:44.681Z,97441.44
2018-07-30T08:45:21.905Z,97443.23
2018-07-30T08:48:04.873Z,97442.29
2018-07-30T08:50:44.836Z,97447.20
2018-07-30T08:53:18.911Z,97442.55
2018-07-30T08:55:58.509Z,97442.73
2018-07-30T08:58:37.536Z,97449.83
2018-07-30T09:01:17.578Z,97445.02
2018-07-30T09:03:55.872Z,97449.52
2018-07-30T09:06:34.558Z,97450.88
2018-07-30T09:09:16.509Z,97448.31
2018-07-30T09:11:56.708Z,97444.95
2018-07-30T09:14:42.667Z,97445.33
2018-07-30T09:17:29.777Z,97450.33
2018-07-30T09:20:08.056Z,97446.76
2018-07-30T09:25:44.287Z,97444.75
2018-07-30T09:28:27.728Z,97442.63
2018-07-30T09:31:08.917Z,97441.02
2018-07-30T09:33:55.241Z,97438.28
2018-07-30T09:36:40.771Z,97437.59
2018-07-30T09:39:24.377Z,97444.55
2018-07-30T09:44:51.254Z,97433.04
2018-07-30T09:47:32.455Z,97427.62
2018-07-30T09:50:14.261Z,97431.96
2018-07-30T09:53:00.237Z,97437.22
2018-07-30T09:55:40.147Z,97433.39
2018-07-30T09:58:28.364Z,97430.64
2018-07-30T10:01:15.937Z,97436.24
2018-07-30T10:04:00.581Z,97428.25
2018-07-30T10:06:43.303Z,97432.91
2018-07-30T10:09:28.742Z,97430.92
2018-07-30T10:14:58.449Z,97430.54
2018-07-30T10:17:38.627Z,97432.80
2018-07-30T10:20:20.511Z,97438.45
2018-07-30T10:23:06.816Z,97438.84
2018-07-30T10:25:47.759Z,97438.64
2018-07-30T10:28:32.377Z,97439.28
2018-07-30T10:31:11.573Z,97438.82
2018-07-30T10:33:48.865Z,97434.69
2018-07-30T10:36:27.083Z,97439.56
2018-07-30T10:39:12.550Z,97446.41
2018-07-30T10:41:50.918Z,97446.57
2018-07-30T10:44:31.865Z,97440.41
2018-07-30T10:47:14.595Z,97438.66
2018-07-30T10:49:54.460Z,97439.00
2018-07-30T10:52:32.753Z,97438.30
2018-07-30T10:55:14.662Z,97433.37
2018-07-30T10:57:54.622Z,97432.66
2018-07-30T11:06:10.663Z,97438.23
2018-07-30T11:08:52.838Z,97439.78
2018-07-30T11:11:36.988Z,97434.33
2018-07-30T11:14:18.928Z,97430.53
2018-07-30T11:17:01.208Z,97433.80
2018-07-30T11:19:41.643Z,97429.36
2018-07-30T11:22:28.332Z,97427.83
2018-07-30T11:25:07.159Z,97429.05
2018-07-30T11:27:44.710Z,97433.20
2018-07-30T11:30:27.482Z,97434.45
2018-07-30T11:33:10.893Z,97447.66
2018-07-30T11:35:52.651Z,97454.55
2018-07-30T11:38:34.272Z,97453.34
2018-07-30T11:41:14.904Z,97449.03
2018-07-30T11:43:57.372Z,97441.80
2018-07-30T11:46:34.795Z,97439.23
2018-07-30T11:49:12.693Z,97441.94
2018-07-30T11:51:49.882Z,97433.98
2018-07-30T11:54:30.356Z,97423.72
2018-07-30T11:57:07.964Z,97427.78
2018-07-30T11:59:51.991Z,97428.27
2018-07-30T12:05:18.886Z,97420.11
2018-07-30T12:07:57.704Z,97410.28
2018-07-30T12:10:32.937Z,97414.14
2018-07-30T12:13:17.294Z,97413.03
2018-07-30T12:15:59.355Z,97419.88
2018-07-30T12:18:39.967Z,97419.63
2018-07-30T12:21:20.109Z,97418.67
2018-07-30T12:23:57.609Z,97413.42
2018-07-30T12:26:38.939Z,97413.50
2018-07-30T12:29:22.355Z,97415.00
2018-07-30T12:32:03.153Z,97412.49
2018-07-30T12:34:39.089Z,97404.50
2018-07-30T12:42:48.484Z,97400.39
2018-07-30T12:45:32.511Z,97395.34
2018-07-30T12:48:16.395Z,97397.55
2018-07-30T12:50:57.025Z,97395.30
2018-07-30T12:56:19.704Z,97397.72
2018-07-30T12:58:56.512Z,97406.23
2018-07-30T13:01:36.711Z,97403.64
2018-07-30T13:04:18.120Z,97402.81
2018-07-30T13:06:57.846Z,97404.81
2018-07-30T13:09:34.942Z,97399.37
2018-07-30T13:12:14.889Z,97396.01
2018-07-30T13:14:56.755Z,97393.28
2018-07-30T13:17:35.993Z,97392.47
2018-07-30T13:20:19.342Z,97390.67
2018-07-30T13:22:59.733Z,97383.34
2018-07-30T13:25:38.686Z,97379.23
2018-07-30T13:28:15.070Z,97381.84
2018-07-30T13:30:57.787Z,97385.28
2018-07-30T13:33:33.628Z,97376.32
2018-07-30T13:36:08.011Z,97378.03
2018-07-30T13:38:44.813Z,97374.30
2018-07-30T13:41:26.590Z,97383.86
2018-07-30T13:44:03.987Z,97386.65
2018-07-30T13:46:43.717Z,97385.52
2018-07-30T13:49:24.193Z,97377.38
2018-07-30T13:52:03.858Z,97369.48
2018-07-30T13:54:40.250Z,97378.31
2018-07-30T13:57:16.711Z,97373.75
2018-07-30T13:59:52.059Z,97374.95
2018-07-30T14:02:29.703Z,97381.92
2018-07-30T14:05:09.612Z,97381.66
2018-07-30T14:07:48.790Z,97386.51
2018-07-30T14:10:31.938Z,97384.67
2018-07-30T14:13:11.741Z,97397.23
2018-07-30T14:15:52.423Z,97400.92
2018-07-30T14:18:35.744Z,97408.81
2018-07-30T14:21:13.710Z,97414.58
2018-07-30T14:23:56.268Z,97422.27
2018-07-30T14:26:37.769Z,97432.02
2018-07-30T14:29:21.616Z,97432.16
2018-07-30T14:31:59.874Z,97418.86
2018-07-30T14:34:42.854Z,97416.25
2018-07-30T14:37:22.453Z,97414.88
2018-07-30T14:40:16.347Z,97420.37
2018-07-30T14:43:01.110Z,97413.02
2018-07-30T14:45:41.174Z,97425.80
2018-07-30T14:48:24.420Z,97429.20
2018-07-30T14:51:05.400Z,97426.49
2018-07-30T14:53:48.201Z,97421.97
2018-07-30T14:56:30.202Z,97413.59
2018-07-30T15:01:53.065Z,97408.50
2018-07-30T15:04:39.199Z,97410.48
2018-07-30T15:10:07.111Z,97398.77
2018-07-30T15:12:50.729Z,97400.59
2018-07-30T15:15:30.228Z,97402.73
2018-07-30T15:18:09.137Z,97403.23
2018-07-30T15:20:51.575Z,97410.06
2018-07-30T15:23:36.580Z,97406.04
2018-07-30T15:26:15.669Z,97404.08
2018-07-30T15:28:58.970Z,97405.90
2018-07-30T15:34:24.657Z,97405.84
2018-07-30T15:37:04.714Z,97409.37
2018-07-30T15:39:43.767Z,97416.41
2018-07-30T15:42:21.353Z,97413.47
2018-07-30T15:45:04.705Z,97421.06
2018-07-30T15:47:42.607Z,97419.75
2018-07-30T15:50:20.575Z,97435.74
2018-07-30T15:53:00.992Z,97429.90
2018-07-30T15:55:41.118Z,97430.39
2018-07-30T15:58:26.157Z,97428.83
2018-07-30T16:01:03.100Z,97417.78
2018-07-30T16:03:42.567Z,97412.70
2018-07-30T16:06:23.911Z,97404.54
2018-07-30T16:09:06.750Z,97403.55
2018-07-30T16:11:49.299Z,97405.64
2018-07-30T16:14:29.313Z,97405.59
2018-07-30T16:17:10.977Z,97410.78
2018-07-30T16:19:50.139Z,97403.99
2018-07-30T16:25:23.478Z,97412.64
2018-07-30T16:28:05.476Z,97414.98
2018-07-30T16:30:44.103Z,97424.31
2018-07-30T16:33:25.060Z,97428.84
2018-07-30T16:36:03.863Z,97439.23
2018-07-30T16:38:42.583Z,97431.86
2018-07-30T16:41:24.563Z,97437.70
2018-07-30T16:44:03.133Z,97439.80
2018-07-30T16:49:22.736Z,97452.77
2018-07-30T16:52:00.767Z,97444.50
2018-07-30T16:57:24.583Z,97436.02
2018-07-30T17:00:04.079Z,97441.38
2018-07-30T17:02:44.859Z,97435.50
2018-07-30T17:05:31.744Z,97432.21
2018-07-30T17:08:15.131Z,97425.61
2018-07-30T17:10:51.649Z,97425.15
2018-07-30T17:13:35.066Z,97425.61
2018-07-30T17:16:18.269Z,97425.89
2018-07-30T17:21:38.526Z,97430.77
2018-07-30T17:24:21.951Z,97428.94
2018-07-30T17:26:55.542Z,97435.41
2018-07-30T17:29:41.214Z,97433.34
2018-07-30T17:32:22.190Z,97430.06
2018-07-30T17:35:07.180Z,97428.23
2018-07-30T17:37:46.070Z,97435.98
2018-07-30T17:40:25.304Z,97434.67
2018-07-30T17:43:04.868Z,97430.38
2018-07-30T17:45:39.918Z,97435.65
2018-07-30T17:48:20.208Z,97442.41
2018-07-30T17:50:57.155Z,97444.47
2018-07-30T17:53:38.855Z,97437.23
2018-07-30T18:01:59.768Z,97437.52
2018-07-30T18:04:41.179Z,97443.55
2018-07-30T18:07:16.033Z,97444.59
2018-07-30T18:09:51.045Z,97451.97
2018-07-30T18:12:28.102Z,97448.96
2018-07-30T18:15:10.271Z,97456.16
2018-07-30T18:17:55.943Z,97455.36
2018-07-30T18:20:35.567Z,97459.84
2018-07-30T18:23:16.466Z,97463.97
2018-07-30T18:25:59.687Z,97461.95
2018-07-30T18:28:45.080Z,97464.89
2018-07-30T18:31:23.845Z,97463.79
2018-07-30T18:34:03.517Z,97463.94
2018-07-30T18:36:46.780Z,97461.52
2018-07-30T18:39:24.149Z,97470.14
2018-07-30T18:42:01.865Z,97473.31
2018-07-30T18:44:42.721Z,97469.13
2018-07-30T18:47:19.444Z,97471.94
2018-07-30T18:49:59.330Z,97475.94
2018-07-30T18:52:35.560Z,97477.55
2018-07-30T18:57:59.863Z,97478.33
2018-07-30T19:00:36.780Z,97486.97
2018-07-30T19:03:10.897Z,97486.65
2018-07-30T19:05:43.061Z,97485.35
2018-07-30T19:08:25.276Z,97492.00
2018-07-30T19:11:06.112Z,97492.52
2018-07-30T19:13:48.037Z,97499.31
2018-07-30T19:16:23.428Z,97490.90
2018-07-30T19:19:09.422Z,97494.30
2018-07-30T19:24:29.334Z,97505.76
2018-07-30T19:27:10.674Z,97508.81
2018-07-30T19:30:00.686Z,97507.52
2018-07-30T19:32:39.011Z,97512.94
2018-07-30T19:35:19.969Z,97512.53
2018-07-30T19:37:56.773Z,97517.97
2018-07-30T19:40:37.305Z,97516.27
2018-07-30T19:43:17.945Z,97522.63
2018-07-30T19:45:58.223Z,97516.09
2018-07-30T19:48:42.291Z,97513.72
2018-07-30T19:51:21.993Z,97509.02
2018-07-30T19:53:59.408Z,97514.94
2018-07-30T19:56:39.578Z,97514.80
2018-07-30T19:59:19.099Z,97514.37
2018-07-30T20:02:00.711Z,97513.09
2018-07-30T20:04:36.686Z,97517.14
2018-07-30T20:07:16.290Z,97518.53
2018-07-30T20:12:42.751Z,97527.87
2018-07-30T20:15:23.572Z,97528.98
2018-07-30T20:17:59.605Z,97526.61
2018-07-30T20:20:39.505Z,97526.86
2018-07-30T20:23:18.767Z,97525.78
2018-07-30T20:25:54.497Z,97525.56
2018-07-30T20:28:38.047Z,97527.70
2018-07-30T20:31:23.365Z,97529.85
2018-07-30T20:34:03.368Z,97526.31
2018-07-30T20:36:40.766Z,97527.02
2018-07-30T20:39:22.337Z,97532.14
2018-07-30T20:42:03.331Z,97542.91
2018-07-30T20:44:48.836Z,97549.72
2018-07-30T20:47:26.212Z,97547.31
2018-07-30T20:50:04.332Z,97553.51
2018-07-30T20:52:39.140Z,97559.42
2018-07-30T20:58:27.619Z,97562.84
2018-07-30T21:01:23.514Z,97564.75
2018-07-30T21:04:16.062Z,97551.36
2018-07-30T21:07:06.226Z,97553.78
2018-07-30T21:18:46.302Z,97559.41
2018-07-30T21:24:39.183Z,97556.19
2018-07-30T21:27:32.219Z,97558.89
2018-07-30T21:30:26.234Z,97555.92
2018-07-30T21:33:23.075Z,97554.03
2018-07-30T21:36:20.410Z,97563.45
2018-07-30T21:39:19.209Z,97560.17
2018-07-30T21:42:14.846Z,97563.92
2018-07-30T21:45:11.789Z,97561.82
2018-07-30T21:48:08.974Z,97567.19
2018-07-30T21:51:00.337Z,97562.58
2018-07-30T22:02:48.839Z,97567.66
2018-07-30T22:08:48.988Z,97577.84
2018-07-30T22:14:37.684Z,97586.63
2018-07-30T22:23:27.269Z,97584.05
2018-07-30T22:26:24.065Z,97575.48
2018-07-30T22:35:00.264Z,97577.37
2018-07-30T22:40:39.600Z,97575.67
2018-07-30T22:49:24.926Z,97573.19
2018-07-30T22:52:19.399Z,97573.80
2018-07-30T22:58:12.036Z,97568.93
2018-07-30T23:01:06.461Z,97563.13
2018-07-30T23:18:29.541Z,97559.73
2018-07-30T23:21:29.932Z,97563.47
2018-07-30T23:24:24.276Z,97560.31
2018-07-30T23:33:16.040Z,97556.39
2018-07-30T23:36:07.075Z,97555.17
2018-07-30T23:38:46.518Z,97555.88
2018-07-30T23:41:35.383Z,97556.59
2018-07-30T23:44:22.093Z,97552.45
2018-07-30T23:50:00.202Z,97552.19
2018-07-30T23:52:41.782Z,97556.03
2018-07-30T23:55:32.921Z,97549.89
2018-07-30T23:58:22.726Z,97555.48
